sensor_id;sensor_type;location;lat;lon;timestamp;pressure;altitude;pressure_sealevel;temperature;humidity
25130;BME280;13308;50.860;13.664;2023-06-26T05:19:21;96791.59;;;21.15;87.69
25130;BME280;13308;50.860;13.664;2023-06-26T05:21:47;96785.16;;;21.49;83.50
25130;BME280;13308;50.860;13.664;2023-06-26T05:24:14;96786.34;;;21.62;85.37
25130;BME280;13308;50.860;13.664;2023-06-26T05:26:40;96789.41;;;22.04;80.60
25130;BME280;13308;50.860;13.664;2023-06-26T05:29:06;96788.19;;;22.11;82.17
25130;BME280;13308;50.860;13.664;2023-06-26T05:31:33;96779.88;;;22.22;78.89
25130;BME280;13308;50.860;13.664;2023-06-26T05:34:00;96780.94;;;22.24;77.92
25130;BME280;13308;50.860;13.664;2023-06-26T05:36:27;96783.97;;;22.21;79.34
25130;BME280;13308;50.860;13.664;2023-06-26T05:38:53;96781.94;;;21.96;82.01
25130;BME280;13308;50.860;13.664;2023-06-26T05:41:19;96782.47;;;22.00;81.01
25130;BME280;13308;50.860;13.664;2023-06-26T05:43:44;96771.59;;;22.13;81.09
25130;BME280;13308;50.860;13.664;2023-06-26T05:46:10;96775.47;;;22.15;81.86
25130;BME280;13308;50.860;13.664;2023-06-26T05:48:35;96769.50;;;22.33;79.64
25130;BME280;13308;50.860;13.664;2023-06-26T05:51:01;96768.56;;;22.42;78.96
25130;BME280;13308;50.860;13.664;2023-06-26T05:53:26;96762.69;;;22.65;77.25
25130;BME280;13308;50.860;13.664;2023-06-26T05:55:52;96770.16;;;22.74;78.64
25130;BME280;13308;50.860;13.664;2023-06-26T05:58:17;96758.97;;;22.85;79.57
25130;BME280;13308;50.860;13.664;2023-06-26T06:00:44;96766.88;;;23.17;75.88
25130;BME280;13308;50.860;13.664;2023-06-26T06:03:10;96765.50;;;23.44;73.52
25130;BME280;13308;50.860;13.664;2023-06-26T06:05:35;96757.59;;;23.53;74.65
25130;BME280;13308;50.860;13.664;2023-06-26T06:08:01;96765.16;;;23.78;73.37
25130;BME280;13308;50.860;13.664;2023-06-26T06:10:26;96763.66;;;23.88;73.04
25130;BME280;13308;50.860;13.664;2023-06-26T06:12:51;96761.38;;;23.92;72.86
25130;BME280;13308;50.860;13.664;2023-06-26T06:15:17;96763.25;;;24.34;69.22
25130;BME280;13308;50.860;13.664;2023-06-26T06:17:42;96767.63;;;24.46;69.89
25130;BME280;13308;50.860;13.664;2023-06-26T06:20:08;96762.22;;;24.42;68.67
25130;BME280;13308;50.860;13.664;2023-06-26T06:22:33;96753.25;;;24.44;69.70
25130;BME280;13308;50.860;13.664;2023-06-26T06:24:59;96763.03;;;24.76;66.62
25130;BME280;13308;50.860;13.664;2023-06-26T06:27:25;96757.91;;;24.80;66.92
25130;BME280;13308;50.860;13.664;2023-06-26T06:29:51;96759.44;;;24.86;66.78
25130;BME280;13308;50.860;13.664;2023-06-26T06:32:16;96753.00;;;24.75;69.01
25130;BME280;13308;50.860;13.664;2023-06-26T06:34:41;96756.88;;;24.72;66.99
25130;BME280;13308;50.860;13.664;2023-06-26T06:37:06;96754.56;;;24.92;68.90
25130;BME280;13308;50.860;13.664;2023-06-26T06:39:32;96752.97;;;25.30;66.24
25130;BME280;13308;50.860;13.664;2023-06-26T06:41:57;96756.81;;;25.27;62.34
25130;BME280;13308;50.860;13.664;2023-06-26T06:44:23;96762.97;;;26.04;60.88
25130;BME280;13308;50.860;13.664;2023-06-26T06:46:49;96756.25;;;26.48;57.66
25130;BME280;13308;50.860;13.664;2023-06-26T06:49:14;96748.78;;;26.10;57.46
25130;BME280;13308;50.860;13.664;2023-06-26T06:51:40;96756.97;;;26.19;58.93
25130;BME280;13308;50.860;13.664;2023-06-26T06:54:05;96760.22;;;26.98;56.82
25130;BME280;13308;50.860;13.664;2023-06-26T06:56:30;96759.91;;;27.79;56.09
25130;BME280;13308;50.860;13.664;2023-06-26T06:58:56;96757.34;;;28.00;54.97
25130;BME280;13308;50.860;13.664;2023-06-26T07:01:21;96765.56;;;28.72;52.68
25130;BME280;13308;50.860;13.664;2023-06-26T07:03:46;96774.78;;;28.78;52.06
25130;BME280;13308;50.860;13.664;2023-06-26T07:06:24;96757.81;;;29.04;50.46
25130;BME280;13308;50.860;13.664;2023-06-26T07:08:49;96763.53;;;28.54;53.82
25130;BME280;13308;50.860;13.664;2023-06-26T07:11:15;96772.59;;;29.02;48.34
25130;BME280;13308;50.860;13.664;2023-06-26T07:13:40;96763.31;;;28.52;50.70
25130;BME280;13308;50.860;13.664;2023-06-26T07:16:05;96768.91;;;28.89;50.90
25130;BME280;13308;50.860;13.664;2023-06-26T07:18:31;96768.13;;;28.88;50.44
25130;BME280;13308;50.860;13.664;2023-06-26T07:20:56;96762.47;;;29.33;48.67
25130;BME280;13308;50.860;13.664;2023-06-26T07:23:21;96767.94;;;30.22;46.73
25130;BME280;13308;50.860;13.664;2023-06-26T07:25:47;96762.81;;;30.20;48.63
25130;BME280;13308;50.860;13.664;2023-06-26T07:28:12;96772.66;;;31.48;44.98
25130;BME280;13308;50.860;13.664;2023-06-26T07:30:37;96766.97;;;30.53;47.26
25130;BME280;13308;50.860;13.664;2023-06-26T07:33:03;96767.56;;;31.26;47.91
25130;BME280;13308;50.860;13.664;2023-06-26T07:35:28;96765.25;;;30.50;47.30
25130;BME280;13308;50.860;13.664;2023-06-26T07:37:54;96768.53;;;30.54;47.80
25130;BME280;13308;50.860;13.664;2023-06-26T07:40:19;96767.63;;;30.92;45.96
25130;BME280;13308;50.860;13.664;2023-06-26T07:42:44;96768.88;;;31.25;44.44
25130;BME280;13308;50.860;13.664;2023-06-26T07:45:11;96770.13;;;31.93;44.57
25130;BME280;13308;50.860;13.664;2023-06-26T07:47:40;96761.22;;;31.48;45.52
25130;BME280;13308;50.860;13.664;2023-06-26T07:50:06;96767.31;;;31.24;43.96
25130;BME280;13308;50.860;13.664;2023-06-26T07:52:31;96776.44;;;31.43;43.76
25130;BME280;13308;50.860;13.664;2023-06-26T07:54:57;96774.00;;;31.75;42.65
25130;BME280;13308;50.860;13.664;2023-06-26T07:57:23;96769.72;;;31.61;43.55
25130;BME280;13308;50.860;13.664;2023-06-26T07:59:48;96774.06;;;31.34;46.14
25130;BME280;13308;50.860;13.664;2023-06-26T08:02:14;96765.75;;;30.95;45.33
25130;BME280;13308;50.860;13.664;2023-06-26T08:04:39;96755.44;;;31.89;45.02
25130;BME280;13308;50.860;13.664;2023-06-26T08:07:04;96766.06;;;31.32;44.79
25130;BME280;13308;50.860;13.664;2023-06-26T08:09:30;96765.56;;;31.41;45.32
25130;BME280;13308;50.860;13.664;2023-06-26T08:11:56;96763.69;;;32.35;45.64
25130;BME280;13308;50.860;13.664;2023-06-26T08:14:22;96747.69;;;31.97;45.31
25130;BME280;13308;50.860;13.664;2023-06-26T08:16:48;96762.75;;;32.48;43.87
25130;BME280;13308;50.860;13.664;2023-06-26T08:19:14;96756.31;;;32.55;44.54
25130;BME280;13308;50.860;13.664;2023-06-26T08:21:41;96763.88;;;33.63;41.53
25130;BME280;13308;50.860;13.664;2023-06-26T08:24:07;96753.47;;;32.62;44.01
25130;BME280;13308;50.860;13.664;2023-06-26T08:26:32;96746.59;;;32.50;42.56
25130;BME280;13308;50.860;13.664;2023-06-26T08:28:57;96741.84;;;32.10;43.17
25130;BME280;13308;50.860;13.664;2023-06-26T08:31:23;96744.28;;;32.41;43.23
25130;BME280;13308;50.860;13.664;2023-06-26T08:33:48;96738.25;;;31.74;44.23
25130;BME280;13308;50.860;13.664;2023-06-26T08:36:14;96744.19;;;30.86;48.53
25130;BME280;13308;50.860;13.664;2023-06-26T08:38:39;96736.25;;;31.13;45.36
25130;BME280;13308;50.860;13.664;2023-06-26T08:41:06;96739.56;;;31.45;45.00
25130;BME280;13308;50.860;13.664;2023-06-26T08:43:31;96751.16;;;31.47;43.84
25130;BME280;13308;50.860;13.664;2023-06-26T08:45:57;96745.44;;;31.47;42.08
25130;BME280;13308;50.860;13.664;2023-06-26T08:48:22;96739.84;;;31.90;43.30
25130;BME280;13308;50.860;13.664;2023-06-26T08:50:49;96736.72;;;32.16;40.66
25130;BME280;13308;50.860;13.664;2023-06-26T08:53:33;96740.13;;;32.65;40.79
25130;BME280;13308;50.860;13.664;2023-06-26T08:56:01;96742.34;;;33.47;39.95
25130;BME280;13308;50.860;13.664;2023-06-26T08:58:27;96737.28;;;32.65;42.91
25130;BME280;13308;50.860;13.664;2023-06-26T09:00:53;96739.31;;;32.42;42.27
25130;BME280;13308;50.860;13.664;2023-06-26T09:03:18;96741.81;;;30.98;43.87
25130;BME280;13308;50.860;13.664;2023-06-26T09:05:44;96724.91;;;30.79;45.54
25130;BME280;13308;50.860;13.664;2023-06-26T09:08:09;96725.81;;;30.54;45.48
25130;BME280;13308;50.860;13.664;2023-06-26T09:10:35;96725.94;;;31.10;45.51
25130;BME280;13308;50.860;13.664;2023-06-26T09:13:00;96729.78;;;30.92;44.26
25130;BME280;13308;50.860;13.664;2023-06-26T09:15:45;96726.78;;;31.18;42.97
25130;BME280;13308;50.860;13.664;2023-06-26T09:18:11;96723.19;;;30.97;43.07
25130;BME280;13308;50.860;13.664;2023-06-26T09:20:37;96728.97;;;31.04;43.97
25130;BME280;13308;50.860;13.664;2023-06-26T09:23:03;96725.50;;;31.19;43.08
25130;BME280;13308;50.860;13.664;2023-06-26T09:25:28;96725.47;;;31.39;43.61
25130;BME280;13308;50.860;13.664;2023-06-26T09:27:55;96739.78;;;31.75;42.32
25130;BME280;13308;50.860;13.664;2023-06-26T09:30:20;96729.06;;;31.68;43.67
25130;BME280;13308;50.860;13.664;2023-06-26T09:32:46;96727.53;;;31.67;44.69
25130;BME280;13308;50.860;13.664;2023-06-26T09:35:12;96730.69;;;31.28;42.73
25130;BME280;13308;50.860;13.664;2023-06-26T09:37:38;96724.00;;;31.05;43.99
25130;BME280;13308;50.860;13.664;2023-06-26T09:40:04;96726.41;;;31.42;44.87
25130;BME280;13308;50.860;13.664;2023-06-26T09:42:30;96727.28;;;31.29;46.60
25130;BME280;13308;50.860;13.664;2023-06-26T09:44:55;96723.34;;;31.40;43.50
25130;BME280;13308;50.860;13.664;2023-06-26T09:47:21;96717.72;;;30.45;46.18
25130;BME280;13308;50.860;13.664;2023-06-26T09:49:47;96722.66;;;30.11;44.75
25130;BME280;13308;50.860;13.664;2023-06-26T09:52:16;96728.88;;;30.76;45.92
25130;BME280;13308;50.860;13.664;2023-06-26T09:54:45;96710.53;;;30.85;46.24
25130;BME280;13308;50.860;13.664;2023-06-26T09:57:16;96708.81;;;30.28;45.79
25130;BME280;13308;50.860;13.664;2023-06-26T09:59:43;96715.00;;;30.73;44.21
25130;BME280;13308;50.860;13.664;2023-06-26T10:02:11;96704.38;;;30.40;44.13
25130;BME280;13308;50.860;13.664;2023-06-26T10:04:37;96697.22;;;30.26;46.23
25130;BME280;13308;50.860;13.664;2023-06-26T10:07:08;96707.53;;;30.90;44.56
25130;BME280;13308;50.860;13.664;2023-06-26T10:09:38;96707.75;;;30.18;45.45
25130;BME280;13308;50.860;13.664;2023-06-26T10:12:18;96693.53;;;30.18;44.40
25130;BME280;13308;50.860;13.664;2023-06-26T10:14:45;96696.03;;;30.75;44.59
25130;BME280;13308;50.860;13.664;2023-06-26T10:17:15;96690.56;;;30.44;45.81
25130;BME280;13308;50.860;13.664;2023-06-26T10:19:44;96689.16;;;30.71;43.08
25130;BME280;13308;50.860;13.664;2023-06-26T10:22:11;96690.69;;;30.72;46.06
25130;BME280;13308;50.860;13.664;2023-06-26T10:24:39;96691.16;;;30.83;44.41
25130;BME280;13308;50.860;13.664;2023-06-26T10:27:26;96693.69;;;30.33;44.86
25130;BME280;13308;50.860;13.664;2023-06-26T10:29:54;96687.13;;;29.52;44.71
25130;BME280;13308;50.860;13.664;2023-06-26T10:32:21;96685.72;;;29.72;46.68
25130;BME280;13308;50.860;13.664;2023-06-26T10:34:48;96678.81;;;30.27;48.01
25130;BME280;13308;50.860;13.664;2023-06-26T10:37:14;96678.09;;;31.16;46.96
25130;BME280;13308;50.860;13.664;2023-06-26T10:42:10;96666.50;;;31.42;45.60
25130;BME280;13308;50.860;13.664;2023-06-26T10:44:43;96677.50;;;31.10;45.93
25130;BME280;13308;50.860;13.664;2023-06-26T10:47:10;96684.09;;;30.77;45.25
25130;BME280;13308;50.860;13.664;2023-06-26T10:49:36;96676.47;;;31.00;45.59
25130;BME280;13308;50.860;13.664;2023-06-26T10:52:04;96671.00;;;30.81;45.07
25130;BME280;13308;50.860;13.664;2023-06-26T10:54:31;96660.50;;;30.97;45.41
25130;BME280;13308;50.860;13.664;2023-06-26T10:56:57;96671.41;;;31.34;44.21
25130;BME280;13308;50.860;13.664;2023-06-26T10:59:32;96675.78;;;31.35;44.39
25130;BME280;13308;50.860;13.664;2023-06-26T11:01:59;96667.72;;;30.57;44.99
25130;BME280;13308;50.860;13.664;2023-06-26T11:04:50;96661.91;;;30.42;45.38
25130;BME280;13308;50.860;13.664;2023-06-26T11:07:22;96662.19;;;30.72;44.45
25130;BME280;13308;50.860;13.664;2023-06-26T11:12:37;96663.31;;;31.45;42.89
25130;BME280;13308;50.860;13.664;2023-06-26T11:15:06;96657.22;;;31.77;41.67
25130;BME280;13308;50.860;13.664;2023-06-26T11:17:32;96654.50;;;31.71;43.42
25130;BME280;13308;50.860;13.664;2023-06-26T11:19:58;96649.69;;;31.59;42.69
25130;BME280;13308;50.860;13.664;2023-06-26T11:22:24;96659.22;;;32.04;43.21
25130;BME280;13308;50.860;13.664;2023-06-26T11:24:53;96657.41;;;32.37;42.94
25130;BME280;13308;50.860;13.664;2023-06-26T11:27:19;96654.81;;;32.84;41.36
25130;BME280;13308;50.860;13.664;2023-06-26T11:29:48;96651.22;;;32.76;41.53
25130;BME280;13308;50.860;13.664;2023-06-26T11:32:14;96654.22;;;32.55;42.68
25130;BME280;13308;50.860;13.664;2023-06-26T11:34:40;96650.59;;;32.47;42.45
25130;BME280;13308;50.860;13.664;2023-06-26T11:37:07;96649.47;;;32.65;42.03
25130;BME280;13308;50.860;13.664;2023-06-26T11:39:33;96647.97;;;32.87;43.62
25130;BME280;13308;50.860;13.664;2023-06-26T11:41:59;96638.81;;;33.11;40.63
25130;BME280;13308;50.860;13.664;2023-06-26T11:44:29;96649.75;;;33.67;41.49
25130;BME280;13308;50.860;13.664;2023-06-26T11:46:56;96640.78;;;33.78;39.29
25130;BME280;13308;50.860;13.664;2023-06-26T11:49:22;96631.38;;;32.70;41.50
25130;BME280;13308;50.860;13.664;2023-06-26T11:51:48;96629.47;;;31.85;43.50
25130;BME280;13308;50.860;13.664;2023-06-26T11:54:13;96635.16;;;31.77;42.49
25130;BME280;13308;50.860;13.664;2023-06-26T11:56:39;96632.16;;;31.90;40.42
25130;BME280;13308;50.860;13.664;2023-06-26T11:59:06;96640.31;;;32.52;42.18
25130;BME280;13308;50.860;13.664;2023-06-26T12:01:42;96635.19;;;32.65;39.51
25130;BME280;13308;50.860;13.664;2023-06-26T12:04:11;96630.81;;;33.02;39.58
25130;BME280;13308;50.860;13.664;2023-06-26T12:06:38;96635.56;;;33.22;40.57
25130;BME280;13308;50.860;13.664;2023-06-26T12:09:07;96638.41;;;33.37;38.29
25130;BME280;13308;50.860;13.664;2023-06-26T12:11:35;96643.16;;;33.49;39.35
25130;BME280;13308;50.860;13.664;2023-06-26T12:14:02;96625.69;;;32.78;39.14
25130;BME280;13308;50.860;13.664;2023-06-26T12:16:29;96638.44;;;32.77;39.57
25130;BME280;13308;50.860;13.664;2023-06-26T12:18:59;96626.97;;;32.69;40.07
25130;BME280;13308;50.860;13.664;2023-06-26T12:24:00;96629.16;;;33.61;39.01
25130;BME280;13308;50.860;13.664;2023-06-26T12:26:27;96619.34;;;33.32;37.66
25130;BME280;13308;50.860;13.664;2023-06-26T12:28:54;96616.16;;;33.75;39.47
25130;BME280;13308;50.860;13.664;2023-06-26T12:31:26;96626.00;;;34.36;38.70
25130;BME280;13308;50.860;13.664;2023-06-26T12:33:52;96617.53;;;33.59;38.42
25130;BME280;13308;50.860;13.664;2023-06-26T12:36:17;96614.81;;;32.99;38.61
25130;BME280;13308;50.860;13.664;2023-06-26T12:38:45;96611.47;;;34.02;38.09
25130;BME280;13308;50.860;13.664;2023-06-26T12:41:12;96613.88;;;34.13;38.27
25130;BME280;13308;50.860;13.664;2023-06-26T12:43:38;96606.72;;;33.97;36.70
25130;BME280;13308;50.860;13.664;2023-06-26T12:46:05;96608.94;;;34.45;37.24
25130;BME280;13308;50.860;13.664;2023-06-26T12:48:41;96610.78;;;34.26;36.22
25130;BME280;13308;50.860;13.664;2023-06-26T12:51:14;96605.13;;;34.11;38.89
25130;BME280;13308;50.860;13.664;2023-06-26T12:53:40;96605.72;;;34.02;37.24
25130;BME280;13308;50.860;13.664;2023-06-26T12:56:06;96603.97;;;34.06;35.70
25130;BME280;13308;50.860;13.664;2023-06-26T12:58:32;96597.94;;;33.48;36.29
25130;BME280;13308;50.860;13.664;2023-06-26T13:00:58;96583.69;;;33.80;37.61
25130;BME280;13308;50.860;13.664;2023-06-26T13:03:23;96585.06;;;34.67;38.24
25130;BME280;13308;50.860;13.664;2023-06-26T13:05:48;96593.66;;;34.92;35.81
25130;BME280;13308;50.860;13.664;2023-06-26T13:08:14;96591.63;;;34.36;37.15
25130;BME280;13308;50.860;13.664;2023-06-26T13:10:42;96591.19;;;34.88;37.25
25130;BME280;13308;50.860;13.664;2023-06-26T13:13:07;96592.41;;;35.19;35.68
25130;BME280;13308;50.860;13.664;2023-06-26T13:15:33;96586.56;;;35.51;36.24
25130;BME280;13308;50.860;13.664;2023-06-26T13:17:59;96588.75;;;35.26;35.48
25130;BME280;13308;50.860;13.664;2023-06-26T13:20:24;96584.22;;;35.15;35.14
25130;BME280;13308;50.860;13.664;2023-06-26T13:22:49;96585.28;;;35.44;33.61
25130;BME280;13308;50.860;13.664;2023-06-26T13:25:14;96574.84;;;36.00;33.75
25130;BME280;13308;50.860;13.664;2023-06-26T13:27:40;96569.97;;;36.91;34.91
25130;BME280;13308;50.860;13.664;2023-06-26T13:30:06;96565.56;;;36.81;33.87
25130;BME280;13308;50.860;13.664;2023-06-26T13:32:31;96562.97;;;36.75;32.92
25130;BME280;13308;50.860;13.664;2023-06-26T13:34:56;96561.94;;;36.90;33.84
25130;BME280;13308;50.860;13.664;2023-06-26T13:37:23;96565.38;;;37.43;32.29
25130;BME280;13308;50.860;13.664;2023-06-26T13:39:49;96562.66;;;37.74;31.85
25130;BME280;13308;50.860;13.664;2023-06-26T13:42:18;96558.16;;;36.87;32.46
25130;BME280;13308;50.860;13.664;2023-06-26T13:44:43;96548.09;;;37.34;31.97
25130;BME280;13308;50.860;13.664;2023-06-26T13:47:13;96554.47;;;38.48;32.66
25130;BME280;13308;50.860;13.664;2023-06-26T13:49:39;96555.53;;;38.34;34.35
25130;BME280;13308;50.860;13.664;2023-06-26T13:52:05;96547.28;;;36.59;32.89
25130;BME280;13308;50.860;13.664;2023-06-26T13:54:34;96544.34;;;35.87;33.25
25130;BME280;13308;50.860;13.664;2023-06-26T13:57:00;96543.31;;;35.49;34.26
25130;BME280;13308;50.860;13.664;2023-06-26T13:59:27;96539.16;;;36.03;34.80
25130;BME280;13308;50.860;13.664;2023-06-26T14:01:52;96540.91;;;36.51;32.62
25130;BME280;13308;50.860;13.664;2023-06-26T14:04:17;96543.44;;;36.38;32.26
25130;BME280;13308;50.860;13.664;2023-06-26T14:06:43;96543.06;;;37.06;32.28
25130;BME280;13308;50.860;13.664;2023-06-26T14:09:10;96534.44;;;36.60;33.68
25130;BME280;13308;50.860;13.664;2023-06-26T14:11:35;96530.84;;;36.69;31.58
25130;BME280;13308;50.860;13.664;2023-06-26T14:14:01;96529.13;;;37.02;31.38
25130;BME280;13308;50.860;13.664;2023-06-26T14:16:26;96524.75;;;37.39;31.87
25130;BME280;13308;50.860;13.664;2023-06-26T14:18:53;96527.13;;;37.90;32.96
25130;BME280;13308;50.860;13.664;2023-06-26T14:21:19;96521.56;;;37.16;31.70
25130;BME280;13308;50.860;13.664;2023-06-26T14:23:44;96524.47;;;36.61;31.59
25130;BME280;13308;50.860;13.664;2023-06-26T14:26:10;96517.34;;;37.17;32.09
25130;BME280;13308;50.860;13.664;2023-06-26T14:28:36;96508.19;;;36.73;31.92
25130;BME280;13308;50.860;13.664;2023-06-26T14:31:01;96501.38;;;36.69;32.88
25130;BME280;13308;50.860;13.664;2023-06-26T14:33:26;96500.34;;;37.02;31.95
25130;BME280;13308;50.860;13.664;2023-06-26T14:35:52;96503.38;;;37.42;32.24
25130;BME280;13308;50.860;13.664;2023-06-26T14:38:17;96495.34;;;37.03;33.43
25130;BME280;13308;50.860;13.664;2023-06-26T14:40:43;96476.06;;;35.69;32.53
25130;BME280;13308;50.860;13.664;2023-06-26T14:43:08;96476.56;;;36.01;32.87
25130;BME280;13308;50.860;13.664;2023-06-26T14:45:33;96459.81;;;35.54;32.90
25130;BME280;13308;50.860;13.664;2023-06-26T14:47:59;96449.97;;;35.74;33.49
25130;BME280;13308;50.860;13.664;2023-06-26T14:50:24;96445.94;;;35.78;34.20
25130;BME280;13308;50.860;13.664;2023-06-26T14:52:49;96440.22;;;36.23;33.40
25130;BME280;13308;50.860;13.664;2023-06-26T14:55:15;96441.47;;;36.39;33.03
25130;BME280;13308;50.860;13.664;2023-06-26T14:57:40;96433.22;;;35.80;33.98
25130;BME280;13308;50.860;13.664;2023-06-26T15:00:06;96424.41;;;35.69;33.60
25130;BME280;13308;50.860;13.664;2023-06-26T15:02:31;96426.00;;;35.36;35.00
25130;BME280;13308;50.860;13.664;2023-06-26T15:04:56;96421.09;;;34.86;35.66
25130;BME280;13308;50.860;13.664;2023-06-26T15:07:22;96417.34;;;35.09;35.36
25130;BME280;13308;50.860;13.664;2023-06-26T15:09:47;96410.78;;;34.49;37.16
25130;BME280;13308;50.860;13.664;2023-06-26T15:12:13;96403.13;;;34.51;35.80
25130;BME280;13308;50.860;13.664;2023-06-26T15:14:38;96403.25;;;33.95;35.01
25130;BME280;13308;50.860;13.664;2023-06-26T15:17:04;96402.72;;;33.89;36.68
25130;BME280;13308;50.860;13.664;2023-06-26T15:19:30;96389.03;;;34.29;36.87
25130;BME280;13308;50.860;13.664;2023-06-26T15:21:55;96391.28;;;33.89;36.77
25130;BME280;13308;50.860;13.664;2023-06-26T15:24:20;96393.00;;;34.50;36.01
25130;BME280;13308;50.860;13.664;2023-06-26T15:26:46;96383.06;;;34.51;35.91
25130;BME280;13308;50.860;13.664;2023-06-26T15:29:11;96386.63;;;34.18;37.34
25130;BME280;13308;50.860;13.664;2023-06-26T15:31:40;96395.88;;;34.67;37.17
25130;BME280;13308;50.860;13.664;2023-06-26T15:34:05;96407.50;;;34.11;36.17
25130;BME280;13308;50.860;13.664;2023-06-26T15:36:30;96411.34;;;32.78;37.67
25130;BME280;13308;50.860;13.664;2023-06-26T15:38:56;96410.44;;;32.53;37.81
25130;BME280;13308;50.860;13.664;2023-06-26T15:41:21;96394.66;;;31.47;39.73
25130;BME280;13308;50.860;13.664;2023-06-26T15:43:46;96398.75;;;31.16;41.07
25130;BME280;13308;50.860;13.664;2023-06-26T15:46:12;96372.50;;;31.10;44.13
25130;BME280;13308;50.860;13.664;2023-06-26T15:48:37;96382.75;;;30.55;41.68
25130;BME280;13308;50.860;13.664;2023-06-26T15:51:03;96374.19;;;30.55;43.64
25130;BME280;13308;50.860;13.664;2023-06-26T15:53:36;96381.66;;;30.30;42.73
25130;BME280;13308;50.860;13.664;2023-06-26T15:56:06;96375.44;;;30.39;44.71
25130;BME280;13308;50.860;13.664;2023-06-26T15:58:32;96378.81;;;30.30;46.47
25130;BME280;13308;50.860;13.664;2023-06-26T16:00:57;96382.81;;;30.06;46.00
25130;BME280;13308;50.860;13.664;2023-06-26T16:03:22;96375.03;;;29.58;46.01
25130;BME280;13308;50.860;13.664;2023-06-26T16:05:48;96372.75;;;29.57;46.52
25130;BME280;13308;50.860;13.664;2023-06-26T16:08:13;96380.44;;;29.28;47.74
25130;BME280;13308;50.860;13.664;2023-06-26T16:10:38;96403.31;;;29.23;47.80
25130;BME280;13308;50.860;13.664;2023-06-26T16:13:04;96445.78;;;28.82;48.32
25130;BME280;13308;50.860;13.664;2023-06-26T16:15:29;96455.16;;;27.99;51.53
25130;BME280;13308;50.860;13.664;2023-06-26T16:17:54;96473.28;;;27.64;54.08
25130;BME280;13308;50.860;13.664;2023-06-26T16:20:20;96469.66;;;27.14;58.16
25130;BME280;13308;50.860;13.664;2023-06-26T16:22:45;96452.09;;;26.36;61.82
25130;BME280;13308;50.860;13.664;2023-06-26T16:25:11;96455.41;;;26.40;63.27
25130;BME280;13308;50.860;13.664;2023-06-26T16:27:36;96452.94;;;26.31;64.53
25130;BME280;13308;50.860;13.664;2023-06-26T16:30:02;96451.00;;;25.67;68.77
25130;BME280;13308;50.860;13.664;2023-06-26T16:32:27;96444.28;;;25.70;70.25
25130;BME280;13308;50.860;13.664;2023-06-26T16:34:52;96433.53;;;25.39;71.89
25130;BME280;13308;50.860;13.664;2023-06-26T16:37:18;96426.56;;;25.40;73.29
25130;BME280;13308;50.860;13.664;2023-06-26T16:39:43;96425.19;;;25.17;75.06
25130;BME280;13308;50.860;13.664;2023-06-26T16:42:08;96443.59;;;24.94;77.38
25130;BME280;13308;50.860;13.664;2023-06-26T16:44:34;96468.47;;;24.22;82.06
25130;BME280;13308;50.860;13.664;2023-06-26T16:46:59;96465.50;;;23.76;85.87
25130;BME280;13308;50.860;13.664;2023-06-26T16:49:26;96460.09;;;23.78;87.08
25130;BME280;13308;50.860;13.664;2023-06-26T16:51:52;96494.44;;;23.49;90.11
25130;BME280;13308;50.860;13.664;2023-06-26T16:54:24;96489.56;;;23.27;92.07
25130;BME280;13308;50.860;13.664;2023-06-26T16:56:53;96492.31;;;23.11;93.71
25130;BME280;13308;50.860;13.664;2023-06-26T16:59:19;96511.53;;;23.12;92.97
25130;BME280;13308;50.860;13.664;2023-06-26T17:01:45;96512.81;;;23.17;91.66
25130;BME280;13308;50.860;13.664;2023-06-26T17:04:10;96524.03;;;23.06;93.06
25130;BME280;13308;50.860;13.664;2023-06-26T17:06:36;96533.19;;;22.90;90.87
25130;BME280;13308;50.860;13.664;2023-06-26T17:09:02;96532.97;;;23.04;91.51
25130;BME280;13308;50.860;13.664;2023-06-26T17:11:28;96544.25;;;23.10;91.30
25130;BME280;13308;50.860;13.664;2023-06-26T17:13:53;96544.75;;;23.03;90.91
25130;BME280;13308;50.860;13.664;2023-06-26T17:16:18;96533.22;;;23.01;91.69
25130;BME280;13308;50.860;13.664;2023-06-26T17:18:44;96529.88;;;22.91;92.59
25130;BME280;13308;50.860;13.664;2023-06-26T17:21:09;96541.13;;;22.86;93.46
25130;BME280;13308;50.860;13.664;2023-06-26T17:23:38;96549.56;;;22.86;93.62
25130;BME280;13308;50.860;13.664;2023-06-26T17:26:03;96552.09;;;22.84;94.93
25130;BME280;13308;50.860;13.664;2023-06-26T17:28:29;96552.56;;;22.77;95.44
25130;BME280;13308;50.860;13.664;2023-06-26T17:30:56;96558.19;;;22.71;95.84
25130;BME280;13308;50.860;13.664;2023-06-26T17:33:21;96561.78;;;22.77;96.96
25130;BME280;13308;50.860;13.664;2023-06-26T17:35:46;96573.53;;;22.76;97.74
25130;BME280;13308;50.860;13.664;2023-06-26T17:38:12;96574.81;;;22.75;98.48
25130;BME280;13308;50.860;13.664;2023-06-26T17:40:37;96584.47;;;22.63;100.00
25130;BME280;13308;50.860;13.664;2023-06-26T17:43:02;96580.16;;;22.67;100.00
25130;BME280;13308;50.860;13.664;2023-06-26T17:45:28;96596.28;;;22.72;98.78
25130;BME280;13308;50.860;13.664;2023-06-26T17:47:55;96586.81;;;22.70;100.00
25130;BME280;13308;50.860;13.664;2023-06-26T17:50:20;96599.75;;;22.51;100.00
25130;BME280;13308;50.860;13.664;2023-06-26T17:52:45;96602.88;;;22.58;100.00
25130;BME280;13308;50.860;13.664;2023-06-26T17:55:11;96609.97;;;22.54;100.00
25130;BME280;13308;50.860;13.664;2023-06-26T17:57:36;96614.31;;;22.49;100.00
25130;BME280;13308;50.860;13.664;2023-06-26T18:00:05;96612.72;;;22.43;100.00
25130;BME280;13308;50.860;13.664;2023-06-26T18:02:37;96623.09;;;22.31;100.00
25130;BME280;13308;50.860;13.664;2023-06-26T18:05:06;96623.66;;;22.35;100.00
25130;BME280;13308;50.860;13.664;2023-06-26T18:07:31;96626.72;;;22.37;100.00
25130;BME280;13308;50.860;13.664;2023-06-26T18:09:57;96632.09;;;22.41;100.00
25130;BME280;13308;50.860;13.664;2023-06-26T18:12:22;96624.94;;;22.40;100.00